阿特拉斯科普柯空气压缩机/ATLAS COPCO四川阿特拉斯空压机保养代理商、经销商、批发商,质量保证,欢迎咨询洽谈了解四川阿特拉斯空压机保养价格/报价/规格/型号/图片等请电话详

 

赛德维尔空压机集团服务热线400-6815868,更多四川阿特拉斯空压机保养产品信息请咨询集团7大分公司和办事处:

西南公司:四川省成都市金牛区蜀跃东路138号

下辖办事处:四川西昌/攀枝花,重庆市,云南省昆明,贵州贵阳,西藏拉萨

西北公司:陕西省西安市未央区北城村660号

下辖办事处:甘肃兰州,宁夏银川,新疆乌鲁木齐,青海西宁

东北公司:辽宁省沈阳市空沈阳市经开区7号附2

下辖办事处:吉林长春,黑龙江哈尔滨

华北公司:内蒙古呼和浩特市新城区海拉尔街263号

下辖办事处:山西太原,河北保定,天津市,北京市

华南公司:广东省东莞市虎门镇龙眼大道600号

下辖办事处:广西南宁、海南海口、福建厦门

华中公司:河南省郑州市管城区东大街24号

下辖办事处:湖北武汉、江西南昌、湖南长沙

华东公司:浙江省宁波市沿山河南路209号

下辖办事处:山东济南、安徽合肥、上海、江苏苏州

成都赛德维尔空压机有限公司为您提供四川阿特拉斯空压机保养的详细产品价格、产品图片、原产地、生产厂家等产品介绍信息,您可以直接联系厂家获取空压机配件和空压机油的具体资料

了解更多四川阿特拉斯空压机保养信息请查询以下空压机配件清单:

 1089949827 #N/A SWITCH OT25E #N/A
1089949822 376.08 SWITCH ON/OF 496 25% 282.06 
1089949821 315.23 SWITCH ON/OF 496 25% 236.42 
1089949820 1977.21 POWER SWITCH 496 25% 1,482.90 
1089949819 #N/A POWER SWITCH #N/A
1089949817 #N/A SWITCH ROD O #N/A
1089949814 #N/A HANDLE FOR D #N/A
1089949813 88.17 PLATE CONNEC 496 25% 66.13 
1089949812 151.37 GASKET 496 25% 113.53 
1089949811 218.47 COVER PLATE 496 25% 163.86 
1089949806 #N/A SHAFT FOR SW #N/A
1089949805 #N/A HANDLE FOR S #N/A
1089949801 #N/A SWITCH 630A #N/A
1089948991 1722.84 TERMINAL EXT 496 25% 1,292.13 
1089948990 1008.11 TERMINAL EXT 496 25% 756.08 
1089948981 158.39 TERMINAL EXT 496 25% 118.80 
1089948980 158.39 TERMINAL EXT 496 25% 118.80 
1089948956 2596.74 CONTACTOR A4 496 25% 1,947.56 
1089948954 1039.32 CONTACTOR A2 496 25% 779.49 
1089948948 3706.28 CONTACTOR A7 496 25% 2,779.71 
1089948947 2361.10 CONTACTOR A5 496 25% 1,770.82 
1089948946 27793.22 CONTACTOR A3 496 25% 20,844.92 
1089948943 7911.94 CONTACTOR A1 496 25% 5,933.95 
1089948942 6874.18 CONTACTOR A1 496 25% 5,155.64 
1089948941 4861.08 CONTACTOR A1 496 25% 3,645.81 
1089948939 3144.49 CONTACTOR A7 496 25% 2,358.37 
1089948938 2816.78 CONTACTOR A6 496 25% 2,112.58 
1089948937 2460.97 CONTACTOR A5 496 25% 1,845.72 
1089948936 2119.21 CONTACTOR A4 496 25% 1,589.41 
1089948934 1590.19 CONTACTOR A2 496 25% 1,192.65 
1089948933 1192.25 CONTACTOR A1 496 25% 894.19 
1089948931 770.90 CONTACTOR A9 496 25% 578.18 
1089948929 553.21 CONTACTOR A1 496 25% 414.91 
1089948927 1449.75 CONTACTOR A2 496 25% 1,087.31 
1089948917 2439.12 CONTACTOR A5 496 25% 1,829.34 
1089948915 1438.82 CONTACTOR A3 496 25% 1,079.11 
1089948913 489.22 CONTACTOR A1 496 25% 366.92 
1089948911 323.81 CONTACTOR A9 496 25% 242.86 
1089948903 137.17 CONTACT BLOC 496 25% 102.88 
1089948902 137.17 CONTACT BLOC 496 25% 102.88 
1089948703 461.14 RING COIL 496 25% 345.86 
1089948701 224.72 FILTER 496 25% 168.54 
1089948652 8067.99 EMC FILTER 496 25% 6,050.99 
1089948650 4424.13 CONTROL PANE 496 25% 3,318.10 
1089948501 #N/A HUMIDITY SWI #N/A
1089947709 4509.96 RS-232 CABLE 496 25% 3,382.47 
1089947620 2459.41 PHASE SEQUEN 496 25% 1,844.56 
1089947526 69.44 GASKET 496 25% 52.08 
1089947525 63.05 GASKET 496 25% 47.29 
1089947518 202.09 FILTER SK317 496 25% 151.57 
1089947517 176.34 FILTER SK317 496 25% 132.26 
1089947516 202.87 FILTER 496 25% 152.15 
1089947515 176.34 FILTER 496 25% 132.26 
1089947508 3412.75 AIR INLET 498 25% 2,559.56 
1089947507 2746.27 AIR INLET 498 25% 2,059.70 
1089947506 3412.75 AIR INLET 498 25% 2,559.56 
1089947505 1376.79 AIR INLET 498 25% 1,032.59 
1089947305 2942.73 CONTACT FOR 49D 25% 2,207.04 
1089946501 #N/A DC-DC CONVER #N/A
1089946107 3069.58 PHASE SEQ RE 496 25% 2,302.18 
1089946106 2348.61 PHASE SEQ RE 496 25% 1,761.46 
1089946104 2818.33 PHASE SEQ RE 496 25% 2,113.75 
1089946102 2818.33 PHASE SEQ RE 496 25% 2,113.75 
1089945943 27273.68 BLOWER 49D 25% 20,455.26 
1089945942 27273.68 BLOWER 49D 25% 20,455.26 
1089945941 15546.50 BLOWER 500-5 49D 25% 11,659.88 
1089945940 15546.50 BLOWER 400-4 49D 25% 11,659.88 
1089945301 1229.71 TEMPERATURE 496 25% 922.28 
1089944937 #N/A TIME RELAY C #N/A
1089944936 980.02 TIME RELAY 496 25% 735.01 
1089944935 1061.17 TIME RELAY C 496 25% 795.87 
1089944924 1481.42 K24 RELAY 490 25% 1,111.06 
1089944923 1076.59 K23 RELAY 490 25% 807.44 
1089944804 6499.65 DISCONNECTIN 496 25% 4,874.74 
1089944802 1356.11 OPERATING HA 496 25% 1,017.08 
1089944708 9285.21 DISCONNECTIN 496 25% 6,963.91 
1089944707 6874.18 DISCONNECTIN 496 25% 5,155.64 
1089944672 4018.39 OVERLOAD REL 496 25% 3,013.79 
1089944671 2475.02 OVERLOAD REL 496 25% 1,856.26 
1089944666 2943.18 OVERLOAD REL 496 25% 2,207.39 
1089944665 2691.94 OVERLOAD REL 496 25% 2,018.95 
1089944661 2425.08 OVERLOAD REL 496 25% 1,818.81 
1089944660 #N/A OVERLOAD REL #N/A
1089944655 #N/A OVERLOAD REL #N/A
1089944615 #N/A OVERLOAD REL #N/A
1089944611 #N/A OVERLOAD REL #N/A
1089944604 #N/A OVERLOAD REL #N/A
1089944590 610.17 N-CONTACT 496 25% 457.63 
1089944525 2559.28 LOAD DISCONN 496 25% 1,919.46 
1089944524 9300.82 DISCONNECTIN 496 25% 6,975.62 
1089944523 4353.91 DISCONNECTIN 496 25% 3,265.43 
1089944510 #N/A SWITCH #N/A
1089944101 6364.06 SOLENOID VAL 490 25% 4,773.05 
1089943910 6558.53 SOLENOID VAL 490 25% 4,918.90 
1089943908 #N/A SOLENOID VAL #N/A
1089943907 #N/A SOLENOID VAL #N/A
1089943906 #N/A SOLENOID VAL #N/A
1089943905 6876.73 SOLENOID VAL 490 25% 5,157.55 
1089943901 #N/A SOL VALVE-GA #N/A
1089943890 165.41 DIODE (FOR D 496 25% 124.06 
1089943836 120.63 CONTACT BLOC 496 25% 90.47 
1089943835 137.79 CONTACT BLOC 496 25% 103.34 
1089943834 72.56 CONTACT BLOC 496 25% 54.42 
1089943833 394.03 RELAY (48VDC 496 25% 295.52 
1089943811 387.01 RELAY 24V 4N 496 25% 290.26 
1089943805 174.00 AUX. CONTACT 496 25% 130.50 
1089943801 391.69 RELAY 496 25% 293.77 
1089943755 9753.38 AUTOTRANSFOR 496 25% 7,315.03 
1089943753 2584.25 AUTOTRANSFOR 496 25% 1,938.19 
1089943752 5571.13 AUTOTRANSFOR 496 25% 4,178.35 
1089943751 4548.97 AUTOTRANSFOR 496 25% 3,411.73 
1089943743 13561.10 AUTOTRANSFOR 496 25% 10,170.82 
1089943742 7818.30 AUTOTRANSFOR 496 25% 5,863.73 
1089943741 12219.04 AUTOTRANSFOR 496 25% 9,164.28 
1089943740 9332.03 AUTOTRANSFOR 496 25% 6,999.02 
1089943736 11095.44 AUTOTRANSFOR 496 25% 8,321.58 
1089943734 6780.55 AUTOTRANSFOR 496 25% 5,085.41 
1089943725 4611.39 AUTOTRANSFOR 496 25% 3,458.54 
1089943714 20022.01 AUTO TRANSFO 49D 25% 15,016.51 
1089943713 11469.97 AUTO TRANSFO 496 25% 8,602.47 
1089943712 11189.07 AUTO TRANSFO 496 25% 8,391.80 
1089943710 24749.90 AUTO TRANSFO 49D 25% 18,562.42 
1089943709 15681.10 AUTO TRANSFO 49D 25% 11,760.83 
1089943708 10919.56 AUTO TRANSFO 49D 25% 8,189.67 
1089943707 10902.74 AUTO TRANSFO 49D 25% 8,177.05 
1089943702 9354.82 AUTO TRANSFO 49D 25% 7,016.11 
1089943652 4681.63 TRANSFORMER 496 25% 3,511.22 
1089943650 4681.63 TRANSFORMER 496 25% 3,511.22 
1089943647 4096.42 TRANSFORMER 496 25% 3,072.31 
1089943646 3597.05 TRANSFORMER 496 25% 2,697.79 
1089943645 3425.39 TRANSFORMER 496 25% 2,569.04 
1089943644 2459.41 TRANSFORMER 496 25% 1,844.56 
1089943643 1846.12 TRAFO SIEMEN 496 25% 1,384.59 
1089943642 2284.64 TRAFO SIEMEN 496 25% 1,713.48 
1089943640 2559.28 TRANSFORMER 496 25% 1,919.46 
1089943639 2301.80 TRANSFORMER 496 25% 1,726.35 
1089943638 1388.88 TRANSFORMER 496 25% 1,041.66 
1089943637 1896.06 TRANSFORMER 496 25% 1,422.04 
1089943634 3729.69 TRANSFORMER 496 25% 2,797.27 
1089943633 #N/A TRANSFORMER #N/A
1089943620 1537.13 TRANSFORMER 496 25% 1,152.85 
1089943619 1416.98 TRANSFORMER 496 25% 1,062.73 
1089943617 4041.80 TRANSFORMER 496 25% 3,031.35 
1089943613 16588.54 TRANSFORMER 496 25% 12,441.41 
1089943610 10408.80 TRANSFORMER 496 25% 7,806.60 
1089943609 5781.80 TRANSFORMER 496 25% 4,336.35 
1089943602 2205.04 TRANSFORMER 496 25% 1,653.78 
1089943601 1905.42 TRANSFORMER 496 25% 1,429.06 
1089943522 1975.64 TIME RELAY 496 25% 1,481.73 
1089943517 #N/A TIMER #N/A
1089943516 1871.09 TIME RELAY T 496 25% 1,403.32 
1089943512 2521.83 TIME RELAY Y 496 25% 1,891.37 
1089943511 2331.45 TIME RELAY Y 496 25% 1,748.59 
1089943510 #N/A TIMER T12-GA #N/A
1089943505 3588.62 TI1 TIMER 490 25% 2,691.47 
1089943504 1111.10 TIME RELAY-S 496 25% 833.33 
1089943503 1111.10 TIME RELAY 496 25% 833.33 
1089943501 1142.32 TIME RELAY 496 25% 856.74 
1089942499 262.17 CONNECTOR/AD 496 25% 196.63 
1089942498 199.75 CONNECTOR/AD 496 25% 149.82 
1089942497 166.98 CONNECTOR/AD 496 25% 125.24 
1089942496 146.06 CONNECTOR/AD 496 25% 109.55 
1089942449 3768.71 OVERLOAD REL 496 25% 2,826.53 
1089942448 1796.18 OVERLOAD REL 496 25% 1,347.14 
1089942447 1495.00 OVERLOAD REL 496 25% 1,121.25 
1089942446 1495.00 OVERLOAD REL 496 25% 1,121.25 

赛德维尔集团是四川阿特拉斯空压机保养一站式供应商,我们将竭诚为您服务!